Time,TemperatureF,DewpointF,PressureIn,WindDirection,WindDirectionDegrees,WindSpeedMPH,WindSpeedGustMPH,Humidity,HourlyPrecipIn,Conditions,Clouds,dailyrainin,SoftwareType,DateUTC
2013-06-24 07:03:00,68.0,66.0,30.24,SSE,154,0.0,0.0,92,0.00,,,0.00,,2013-06-24 11:03:00,
2013-06-24 07:16:00,68.0,66.0,30.24,SSE,153,0.0,1.0,92,0.00,,,0.00,,2013-06-24 11:16:00,
2013-06-24 07:29:00,68.0,66.0,30.24,SSE,154,1.0,2.0,92,0.00,,,0.00,,2013-06-24 11:29:00,
2013-06-24 07:34:00,68.0,66.0,30.24,SSE,154,0.0,2.0,92,0.00,,,0.00,,2013-06-24 11:34:00,
2013-06-24 07:47:00,68.0,66.0,30.25,SSE,153,0.0,3.0,92,0.00,,,0.00,,2013-06-24 11:47:00,
2013-06-24 07:56:00,68.0,66.0,30.25,SSE,154,0.0,0.0,92,0.00,,,0.00,,2013-06-24 11:56:00,
2013-06-24 08:05:00,69.0,67.0,30.25,SSE,154,0.0,0.0,93,0.00,,,0.00,,2013-06-24 12:05:00,
2013-06-24 08:16:00,69.0,67.0,30.26,SSE,153,0.0,0.0,92,0.00,,,0.00,,2013-06-24 12:16:00,
2013-06-24 08:24:00,69.0,67.0,30.26,SSE,154,0.0,2.0,92,0.00,,,0.00,,2013-06-24 12:24:00,
2013-06-24 08:36:00,70.0,68.0,30.26,SSE,154,1.0,4.0,92,0.00,,,0.00,,2013-06-24 12:36:00,
2013-06-24 08:48:00,70.0,67.0,30.27,SSE,153,3.0,5.0,91,0.00,,,0.00,,2013-06-24 12:48:00,
2013-06-24 09:06:00,70.0,67.0,30.27,SSE,153,2.0,4.0,91,0.00,,,0.00,,2013-06-24 13:06:00,
2013-06-24 09:24:00,70.0,67.0,30.28,SSE,153,0.0,5.0,91,0.00,,,0.00,,2013-06-24 13:24:00,
2013-06-24 09:36:00,70.0,68.0,30.28,SSE,154,0.0,4.0,92,0.00,,,0.00,,2013-06-24 13:36:00,
2013-06-24 10:16:00,70.0,68.0,30.29,SSE,162,0.0,3.0,92,0.00,,,0.00,,2013-06-24 14:16:00,
2013-06-24 10:37:00,71.0,68.0,30.29,SSE,161,2.0,7.0,91,0.00,,,0.00,,2013-06-24 14:37:00,
2013-06-24 10:45:00,70.0,67.0,30.29,SSE,160,2.0,7.0,91,0.00,,,0.00,,2013-06-24 14:45:00,
2013-06-24 10:56:00,70.0,67.0,30.29,SSE,160,2.0,7.0,91,0.00,,,0.00,,2013-06-24 14:56:00,
2013-06-24 11:05:00,70.0,67.0,30.29,SSE,156,2.0,9.0,91,0.00,,,0.00,,2013-06-24 15:05:00,
2013-06-24 11:54:00,73.0,69.0,30.29,SSE,157,0.0,3.0,88,0.00,,,0.00,,2013-06-24 15:54:00,
2013-06-24 12:04:00,75.0,70.0,30.29,SSE,157,0.0,2.0,84,0.00,,,0.00,,2013-06-24 16:04:00,
2013-06-24 13:06:00,77.0,71.0,30.27,SE,131,2.0,10.0,83,0.00,,,0.00,,2013-06-24 17:06:00,
2013-06-24 13:35:00,77.0,70.0,30.26,SE,132,5.0,9.0,80,0.00,,,0.00,,2013-06-24 17:35:00,
2013-06-24 13:47:00,78.0,70.0,30.25,SE,129,9.0,11.0,77,0.00,,,0.00,,2013-06-24 17:47:00,
2013-06-24 14:14:00,79.0,70.0,30.24,SE,135,4.0,7.0,75,0.00,,,0.00,,2013-06-24 18:14:00,
2013-06-24 14:46:00,80.0,70.0,30.23,SE,144,2.0,8.0,71,0.00,,,0.00,,2013-06-24 18:46:00,
2013-06-24 15:06:00,80.0,70.0,30.22,SE,143,6.0,11.0,71,0.00,,,0.00,,2013-06-24 19:06:00,
2013-06-24 15:37:00,79.0,69.0,30.21,SE,142,4.0,7.0,71,0.00,,,0.00,,2013-06-24 19:37:00,
2013-06-24 15:45:00,80.0,71.0,30.21,SE,142,0.0,6.0,73,0.00,,,0.00,,2013-06-24 19:45:00,
2013-06-24 16:12:00,81.0,71.0,30.21,SE,130,1.0,5.0,71,0.00,,,0.00,,2013-06-24 20:12:00,
2013-06-24 16:24:00,81.0,72.0,30.21,SE,138,3.0,9.0,74,0.00,,,0.00,,2013-06-24 20:24:00,
2013-06-24 16:45:00,80.0,70.0,30.20,SE,138,0.0,9.0,72,0.00,,,0.00,,2013-06-24 20:45:00,
2013-06-24 17:04:00,81.0,71.0,30.19,SE,138,3.0,5.0,71,0.00,,,0.00,,2013-06-24 21:04:00,
2013-06-24 17:13:00,81.0,70.0,30.19,SE,138,2.0,5.0,70,0.00,,,0.00,,2013-06-24 21:13:00,
2013-06-24 17:25:00,81.0,69.0,30.18,SE,138,2.0,4.0,68,0.00,,,0.00,,2013-06-24 21:25:00,
2013-06-24 17:37:00,81.0,70.0,30.18,SE,138,1.0,4.0,70,0.00,,,0.00,,2013-06-24 21:37:00,
2013-06-24 17:46:00,79.0,70.0,30.18,SE,138,0.0,6.0,74,0.00,,,0.00,,2013-06-24 21:46:00,
2013-06-24 18:36:00,80.0,71.0,30.17,SE,144,1.0,6.0,74,0.00,,,0.00,,2013-06-24 22:36:00,
2013-06-24 18:47:00,79.0,70.0,30.16,SSE,149,1.0,7.0,75,0.00,,,0.00,,2013-06-24 22:47:00,
2013-06-24 18:55:00,78.0,70.0,30.17,SSE,162,2.0,7.0,76,0.00,,,0.00,,2013-06-24 22:55:00,
2013-06-24 19:05:00,78.0,69.0,30.17,SSE,162,2.0,5.0,75,0.00,,,0.00,,2013-06-24 23:05:00,
2013-06-24 19:14:00,78.0,70.0,30.17,SSE,162,1.0,3.0,76,0.00,,,0.00,,2013-06-24 23:14:00,
2013-06-24 19:27:00,78.0,70.0,30.17,SSE,162,1.0,3.0,76,0.00,,,0.00,,2013-06-24 23:27:00,
2013-06-24 19:35:00,78.0,69.0,30.17,SSE,162,0.0,3.0,74,0.00,,,0.00,,2013-06-24 23:35:00,
2013-06-24 19:45:00,78.0,69.0,30.17,SSE,162,0.0,3.0,74,0.00,,,0.00,,2013-06-24 23:45:00,
2013-06-24 19:53:00,78.0,69.0,30.17,SSE,162,0.0,1.0,74,0.00,,,0.00,,2013-06-24 23:53:00,
2013-06-24 20:06:00,78.0,69.0,30.18,SSE,162,0.0,3.0,74,0.00,,,0.00,,2013-06-25 00:06:00,
2013-06-24 20:24:00,77.0,69.0,30.19,SSE,162,0.0,1.0,77,0.00,,,0.00,,2013-06-25 00:24:00,
2013-06-24 20:34:00,75.0,69.0,30.19,SSE,162,0.0,7.0,82,0.00,,,0.00,,2013-06-25 00:34:00,
2013-06-24 20:47:00,75.0,69.0,30.19,SSE,162,0.0,3.0,83,0.00,,,0.00,,2013-06-25 00:47:00,
2013-06-24 20:55:00,75.0,69.0,30.19,SSE,162,0.0,0.0,83,0.00,,,0.00,,2013-06-25 00:55:00,
2013-06-24 21:04:00,75.0,69.0,30.19,SSE,162,0.0,1.0,81,0.00,,,0.00,,2013-06-25 01:04:00,
2013-06-24 21:44:00,74.0,69.0,30.18,SSE,162,0.0,4.0,85,0.00,,,0.00,,2013-06-25 01:44:00,
2013-06-24 22:16:00,73.0,69.0,30.19,SSE,162,0.0,2.0,86,0.00,,,0.00,,2013-06-25 02:16:00,
2013-06-24 22:25:00,73.0,69.0,30.19,SSE,161,0.0,2.0,87,0.00,,,0.00,,2013-06-25 02:25:00,
2013-06-24 22:45:00,72.0,68.0,30.20,SSE,162,0.0,2.0,88,0.00,,,0.00,,2013-06-25 02:45:00,
2013-06-24 23:33:00,71.0,68.0,30.20,SSE,162,3.0,4.0,90,0.00,,,0.00,,2013-06-25 03:33:00,
2013-06-24 23:44:00,71.0,68.0,30.21,SSE,161,1.0,4.0,90,0.00,,,0.00,,2013-06-25 03:44:00,
2013-06-24 23:53:00,71.0,68.0,30.20,SSE,162,2.0,3.0,90,0.00,,,0.00,,2013-06-25 03:53:00,